createdAt,value
2023-01-13T00:01:19.428Z,59.71
2023-01-13T00:03:46.743Z,63.61
2023-01-13T00:06:18.385Z,64.75
2023-01-13T00:08:48.495Z,63.71
2023-01-13T00:11:15.955Z,59.65
2023-01-13T00:13:43.297Z,57.17
2023-01-13T00:16:12.992Z,58.29
2023-01-13T00:18:40.033Z,60.45
2023-01-13T00:21:11.752Z,63.82
2023-01-13T00:23:40.059Z,64.68
2023-01-13T00:26:12.961Z,62.99
2023-01-13T00:28:40.425Z,59.54
2023-01-13T00:31:09.086Z,56.90
2023-01-13T00:33:37.270Z,58.01
2023-01-13T00:36:06.000Z,61.25
2023-01-13T00:38:35.637Z,64.51
2023-01-13T00:41:06.093Z,64.29
2023-01-13T00:43:35.388Z,62.32
2023-01-13T00:46:04.197Z,60.29
2023-01-13T00:48:31.911Z,57.10
2023-01-13T00:51:04.391Z,57.10
2023-01-13T00:53:35.341Z,59.86
2023-01-13T00:56:15.038Z,61.09
2023-01-13T00:58:43.549Z,64.76
2023-01-13T01:01:13.291Z,65.16
2023-01-13T01:03:41.143Z,61.69
2023-01-13T01:06:12.762Z,60.60
2023-01-13T01:08:39.931Z,58.03
2023-01-13T01:11:09.774Z,57.80
2023-01-13T01:13:37.194Z,59.49
2023-01-13T01:16:09.392Z,61.70
2023-01-13T01:18:42.468Z,64.11
2023-01-13T01:21:10.934Z,63.62
2023-01-13T01:23:39.366Z,60.17
2023-01-13T01:26:09.269Z,57.74
2023-01-13T01:28:36.669Z,58.11
2023-01-13T01:31:13.685Z,58.71
2023-01-13T01:33:41.593Z,62.42
2023-01-13T01:36:10.226Z,64.28
2023-01-13T01:38:37.751Z,62.98
2023-01-13T01:41:05.294Z,59.60
2023-01-13T01:44:08.506Z,56.68
2023-01-13T01:46:37.583Z,57.88
2023-01-13T01:49:26.608Z,59.65
2023-01-13T01:52:02.638Z,58.72
2023-01-13T01:54:35.371Z,60.98
2023-01-13T01:57:02.655Z,63.16
2023-01-13T01:59:33.009Z,66.04
2023-01-13T02:02:00.554Z,64.02
2023-01-13T02:04:36.717Z,61.86
2023-01-13T02:07:04.899Z,57.59
2023-01-13T02:09:33.369Z,57.15
2023-01-13T02:12:20.042Z,59.01
2023-01-13T02:14:47.785Z,60.12
2023-01-13T02:17:40.803Z,63.12
2023-01-13T02:20:50.197Z,62.85
2023-01-13T02:24:03.549Z,59.84
2023-01-13T02:26:53.075Z,57.29
2023-01-13T02:30:10.808Z,58.55
2023-01-13T02:32:56.189Z,59.41
2023-01-13T02:35:29.545Z,62.02
2023-01-13T02:37:59.906Z,64.71
2023-01-13T02:40:41.231Z,63.18
2023-01-13T02:43:51.631Z,60.48
2023-01-13T02:46:30.508Z,56.54
2023-01-13T02:49:05.275Z,56.95
2023-01-13T02:51:34.155Z,58.62
2023-01-13T02:54:08.027Z,60.17
2023-01-13T02:56:40.908Z,61.76
2023-01-13T02:59:09.678Z,65.73
2023-01-13T03:01:37.551Z,65.41
2023-01-13T03:04:15.809Z,60.63
2023-01-13T03:07:02.191Z,58.01
2023-01-13T03:09:43.829Z,58.16
2023-01-13T03:12:17.024Z,59.21
2023-01-13T03:15:13.757Z,61.33
2023-01-13T03:17:50.325Z,63.76
2023-01-13T03:20:25.929Z,62.93
2023-01-13T03:23:07.249Z,60.49
2023-01-13T03:25:51.259Z,57.10
2023-01-13T03:28:30.123Z,57.01
2023-01-13T03:31:08.585Z,59.53
2023-01-13T03:33:41.404Z,61.90
2023-01-13T03:36:11.730Z,64.40
2023-01-13T03:38:48.314Z,63.40
2023-01-13T03:41:22.689Z,61.55
2023-01-13T03:44:15.121Z,57.46
2023-01-13T03:46:51.362Z,57.02
2023-01-13T03:49:24.206Z,58.98
2023-01-13T03:51:57.156Z,60.46
2023-01-13T03:54:28.400Z,63.23
2023-01-13T03:57:00.776Z,62.98
2023-01-13T03:59:33.935Z,60.77
2023-01-13T04:02:07.452Z,57.80
2023-01-13T04:04:45.087Z,58.27
2023-01-13T04:07:32.258Z,59.13
2023-01-13T04:10:06.883Z,60.32
2023-01-13T04:13:00.177Z,62.56
2023-01-13T04:15:31.365Z,64.22
2023-01-13T04:18:17.962Z,63.42
2023-01-13T04:20:46.875Z,61.75
2023-01-13T04:23:14.014Z,57.21
2023-01-13T04:25:42.766Z,55.58
2023-01-13T04:28:11.406Z,57.04
2023-01-13T04:30:39.209Z,58.82
2023-01-13T04:33:06.729Z,58.94
2023-01-13T04:35:35.611Z,60.58
2023-01-13T04:38:08.606Z,63.91
2023-01-13T04:40:35.622Z,63.59
2023-01-13T04:43:03.505Z,61.77
2023-01-13T04:45:36.941Z,57.97
2023-01-13T04:48:09.908Z,56.05
2023-01-13T04:50:37.019Z,56.67
2023-01-13T04:53:04.170Z,59.49
2023-01-13T04:55:32.577Z,60.39
2023-01-13T04:58:04.797Z,62.40
2023-01-13T05:00:32.373Z,63.60
2023-01-13T05:02:59.931Z,61.39
2023-01-13T05:05:29.104Z,58.74
2023-01-13T05:07:56.300Z,55.54
2023-01-13T05:10:24.129Z,56.32
2023-01-13T05:13:09.816Z,57.82
2023-01-13T05:15:56.068Z,58.54
2023-01-13T05:18:23.376Z,58.81
2023-01-13T05:20:50.497Z,59.70
2023-01-13T05:23:36.495Z,61.04
2023-01-13T05:26:03.445Z,61.45
2023-01-13T05:28:34.575Z,61.15
2023-01-13T05:31:09.050Z,62.02
2023-01-13T05:33:36.390Z,64.43
2023-01-13T05:36:04.318Z,65.23
2023-01-13T05:38:31.358Z,64.98
2023-01-13T05:41:36.803Z,60.22
2023-01-13T05:44:04.106Z,56.20
2023-01-13T05:46:31.256Z,55.82
2023-01-13T05:49:00.339Z,56.66
2023-01-13T05:51:27.781Z,57.33
2023-01-13T05:53:55.078Z,58.23
2023-01-13T05:56:22.255Z,59.22
2023-01-13T05:58:49.495Z,59.47
2023-01-13T06:01:16.618Z,60.03
2023-01-13T06:03:43.584Z,61.25
2023-01-13T06:06:10.918Z,64.32
2023-01-13T06:08:39.748Z,64.74
2023-01-13T06:11:07.859Z,61.06
2023-01-13T06:13:35.044Z,58.40
2023-01-13T06:16:02.168Z,56.22
2023-01-13T06:18:29.636Z,57.72
2023-01-13T06:20:57.113Z,58.71
2023-01-13T06:23:24.853Z,60.21
2023-01-13T06:26:16.577Z,61.71
2023-01-13T06:28:43.787Z,64.03
2023-01-13T06:31:11.809Z,62.64
2023-01-13T06:33:49.875Z,61.07
2023-01-13T06:36:22.561Z,57.71
2023-01-13T06:38:54.661Z,55.50
2023-01-13T06:41:42.823Z,56.21
2023-01-13T06:44:10.545Z,57.49
2023-01-13T06:46:37.788Z,60.48
2023-01-13T06:49:05.220Z,61.06
2023-01-13T06:51:32.342Z,60.09
2023-01-13T06:53:59.559Z,61.75
2023-01-13T06:56:27.002Z,64.05
2023-01-13T06:58:54.046Z,65.98
2023-01-13T07:01:21.505Z,63.16
2023-01-13T07:03:48.983Z,58.32
2023-01-13T07:06:16.121Z,56.55
2023-01-13T07:08:43.303Z,57.48
2023-01-13T07:11:11.381Z,59.23
2023-01-13T07:13:57.841Z,60.01
2023-01-13T07:16:25.563Z,61.52
2023-01-13T07:18:52.579Z,63.39
2023-01-13T07:21:20.491Z,63.46
2023-01-13T07:23:48.844Z,60.07
2023-01-13T07:26:17.041Z,57.48
2023-01-13T07:28:43.984Z,57.01
2023-01-13T07:31:21.557Z,58.08
2023-01-13T07:33:49.026Z,59.55
2023-01-13T07:36:16.342Z,60.92
2023-01-13T07:38:44.961Z,60.56
2023-01-13T07:41:34.950Z,62.40
2023-01-13T07:44:05.474Z,65.35
2023-01-13T07:46:34.031Z,64.72
2023-01-13T07:49:01.199Z,62.55
2023-01-13T07:51:28.454Z,58.35
2023-01-13T07:53:55.506Z,56.17
2023-01-13T07:56:22.559Z,56.99
2023-01-13T07:58:51.545Z,58.84
2023-01-13T08:01:19.921Z,60.38
2023-01-13T08:03:47.711Z,60.29
2023-01-13T08:06:15.714Z,61.43
2023-01-13T08:08:42.896Z,63.51
2023-01-13T08:11:10.050Z,65.24
2023-01-13T08:13:37.726Z,62.59
2023-01-13T08:16:07.865Z,60.58
2023-01-13T08:18:35.981Z,56.94
2023-01-13T08:21:06.919Z,56.11
2023-01-13T08:23:34.782Z,57.14
2023-01-13T08:26:03.573Z,57.63
2023-01-13T08:28:31.062Z,59.36
2023-01-13T08:31:06.568Z,60.64
2023-01-13T08:33:34.587Z,61.50
2023-01-13T08:36:06.864Z,64.26
2023-01-13T08:38:35.805Z,64.91
2023-01-13T08:41:09.799Z,62.38
2023-01-13T08:43:37.312Z,60.31
2023-01-13T08:46:05.391Z,56.49
2023-01-13T08:48:33.542Z,56.37
2023-01-13T08:51:08.530Z,57.43
2023-01-13T08:53:36.112Z,58.72
2023-01-13T08:56:08.698Z,59.29
2023-01-13T08:58:35.623Z,60.19
2023-01-13T09:01:07.041Z,60.88
2023-01-13T09:03:34.589Z,62.83
2023-01-13T09:06:13.497Z,65.78
2023-01-13T09:08:49.859Z,64.25
2023-01-13T09:11:45.012Z,62.53
2023-01-13T09:14:12.112Z,57.63
2023-01-13T09:16:39.196Z,55.57
2023-01-13T09:19:06.556Z,56.29
2023-01-13T09:21:34.397Z,57.15
2023-01-13T09:24:01.976Z,58.80
2023-01-13T09:26:29.041Z,59.99
2023-01-13T09:28:56.636Z,60.44
2023-01-13T09:31:23.910Z,61.44
2023-01-13T09:34:10.079Z,62.03
2023-01-13T09:36:37.439Z,64.34
2023-01-13T09:39:04.888Z,63.54
2023-01-13T09:42:05.239Z,61.56
2023-01-13T09:45:04.965Z,57.69
2023-01-13T09:47:44.187Z,56.07
2023-01-13T09:50:14.503Z,56.76
2023-01-13T09:52:46.079Z,57.87
2023-01-13T09:55:17.954Z,59.32
2023-01-13T09:57:45.488Z,60.24
2023-01-13T10:00:38.472Z,60.35
2023-01-13T10:03:23.648Z,59.63
2023-01-13T10:06:30.065Z,59.85
2023-01-13T10:08:58.327Z,60.77
2023-01-13T10:12:01.231Z,61.77
2023-01-13T10:14:40.495Z,61.88
2023-01-13T10:17:29.614Z,61.39
2023-01-13T10:20:15.835Z,61.75
2023-01-13T10:23:19.029Z,62.64
2023-01-13T10:25:55.907Z,63.03
2023-01-13T10:28:24.382Z,60.98
2023-01-13T10:30:52.089Z,55.38
2023-01-13T10:33:27.595Z,54.64
2023-01-13T10:36:00.819Z,55.25
2023-01-13T10:38:42.029Z,55.53
2023-01-13T10:41:15.593Z,57.01
2023-01-13T10:43:59.025Z,58.68
2023-01-13T10:46:27.556Z,59.00
2023-01-13T10:48:57.204Z,59.28
2023-01-13T10:51:28.644Z,59.49
2023-01-13T10:54:14.323Z,59.93
2023-01-13T10:56:45.351Z,59.43
2023-01-13T10:59:30.312Z,60.34
2023-01-13T11:02:25.886Z,59.91
2023-01-13T11:04:54.021Z,60.87
2023-01-13T11:07:35.272Z,60.93
2023-01-13T11:10:23.839Z,61.16
2023-01-13T11:12:54.925Z,60.99
2023-01-13T11:15:32.438Z,61.32
2023-01-13T11:18:10.825Z,61.55
2023-01-13T11:20:42.447Z,61.57
2023-01-13T11:23:25.818Z,61.64
2023-01-13T11:25:59.779Z,61.60
2023-01-13T11:28:39.100Z,61.38
2023-01-13T11:31:21.663Z,61.27
2023-01-13T11:34:02.119Z,61.29
2023-01-13T11:36:39.218Z,61.26
2023-01-13T11:39:28.463Z,61.15
2023-01-13T11:42:25.757Z,61.08
2023-01-13T11:45:08.158Z,61.43
2023-01-13T11:47:36.676Z,60.96
2023-01-13T11:50:04.833Z,61.11
2023-01-13T11:53:06.337Z,61.14
2023-01-13T11:55:47.815Z,61.19
2023-01-13T11:58:45.619Z,61.26
2023-01-13T12:01:40.870Z,61.21
2023-01-13T12:04:41.522Z,61.08
2023-01-13T12:07:23.441Z,60.94
2023-01-13T12:10:13.388Z,61.02
2023-01-13T12:13:01.319Z,60.96
2023-01-13T12:15:36.043Z,61.12
2023-01-13T12:18:51.625Z,60.76
2023-01-13T12:21:27.861Z,60.76
2023-01-13T12:24:13.927Z,60.98
2023-01-13T12:26:56.658Z,60.98
2023-01-13T12:29:31.863Z,61.04
2023-01-13T12:32:02.502Z,60.83
2023-01-13T12:34:38.896Z,61.00
2023-01-13T12:37:38.921Z,60.83
2023-01-13T12:40:39.448Z,60.96
2023-01-13T12:43:39.076Z,61.14
2023-01-13T12:46:25.233Z,61.23
2023-01-13T12:48:57.359Z,61.23
2023-01-13T12:51:28.762Z,61.47
2023-01-13T12:54:20.889Z,61.71
2023-01-13T12:56:48.638Z,61.78
2023-01-13T12:59:22.002Z,61.91
2023-01-13T13:02:10.812Z,61.88
2023-01-13T13:04:49.470Z,62.10
2023-01-13T13:07:32.624Z,63.95
2023-01-13T13:10:32.105Z,66.24
2023-01-13T13:13:19.362Z,65.97
2023-01-13T13:15:52.071Z,60.45
2023-01-13T13:18:22.285Z,55.44
2023-01-13T13:21:09.145Z,54.34
2023-01-13T13:24:01.325Z,55.00
2023-01-13T13:26:33.131Z,56.17
2023-01-13T13:29:29.753Z,57.44
2023-01-13T13:32:44.668Z,58.63
2023-01-13T13:35:40.779Z,58.85
2023-01-13T13:39:06.206Z,59.25
2023-01-13T13:41:55.698Z,59.44
2023-01-13T13:44:59.257Z,60.30
2023-01-13T13:47:26.449Z,60.78
2023-01-13T13:49:55.028Z,61.10
2023-01-13T13:52:30.272Z,61.16
2023-01-13T13:55:10.139Z,61.59
2023-01-13T13:57:41.127Z,61.80
2023-01-13T14:00:23.596Z,61.83
2023-01-13T14:03:02.315Z,61.75
2023-01-13T14:05:37.068Z,61.80
2023-01-13T14:08:35.203Z,61.98
2023-01-13T14:11:42.257Z,61.87
2023-01-13T14:14:17.772Z,61.86
2023-01-13T14:16:45.266Z,62.59
2023-01-13T14:19:44.867Z,66.45
2023-01-13T14:22:16.753Z,66.31
2023-01-13T14:24:49.588Z,63.67
2023-01-13T14:27:19.382Z,58.15
2023-01-13T14:29:46.816Z,54.26
2023-01-13T14:32:20.596Z,54.01
2023-01-13T14:34:47.960Z,54.87
2023-01-13T14:37:37.166Z,55.84
2023-01-13T14:40:06.058Z,56.13
2023-01-13T14:42:36.025Z,57.35
2023-01-13T14:45:03.692Z,59.04
2023-01-13T14:47:35.039Z,58.74
2023-01-13T14:50:36.927Z,59.85
2023-01-13T14:53:05.517Z,59.76
2023-01-13T14:55:42.043Z,60.11
2023-01-13T14:58:24.746Z,61.02
2023-01-13T15:01:12.855Z,60.87
2023-01-13T15:03:42.891Z,61.25
2023-01-13T15:06:23.632Z,62.08
2023-01-13T15:08:51.015Z,64.44
2023-01-13T15:11:25.871Z,63.84
2023-01-13T15:13:59.464Z,63.31
2023-01-13T15:16:28.130Z,59.84
2023-01-13T15:18:56.527Z,55.75
2023-01-13T15:21:24.261Z,55.85
2023-01-13T15:23:51.752Z,57.34
2023-01-13T15:26:21.117Z,57.98
2023-01-13T15:28:49.359Z,59.68
2023-01-13T15:31:16.794Z,60.97
2023-01-13T15:33:44.195Z,62.58
2023-01-13T15:36:23.939Z,64.41
2023-01-13T15:38:51.946Z,63.10
2023-01-13T15:41:39.584Z,57.49
2023-01-13T15:44:25.414Z,55.91
2023-01-13T15:46:58.545Z,57.26
2023-01-13T15:49:35.470Z,59.13
2023-01-13T15:52:26.283Z,59.75
2023-01-13T15:54:54.462Z,60.90
2023-01-13T15:57:27.754Z,61.52
2023-01-13T15:59:58.015Z,63.60
2023-01-13T16:02:25.737Z,66.55
2023-01-13T16:04:54.503Z,61.62
2023-01-13T16:07:24.201Z,57.55
2023-01-13T16:09:51.983Z,57.72
2023-01-13T16:12:19.248Z,58.88
2023-01-13T16:14:46.385Z,59.62
2023-01-13T16:17:24.390Z,60.72
2023-01-13T16:19:52.409Z,61.50
2023-01-13T16:22:19.822Z,64.68
2023-01-13T16:24:47.084Z,63.96
2023-01-13T16:27:17.465Z,61.38
2023-01-13T16:29:46.006Z,58.78
2023-01-13T16:32:15.149Z,57.73
2023-01-13T16:34:42.526Z,58.81
2023-01-13T16:37:28.231Z,60.37
2023-01-13T16:39:55.330Z,61.30
2023-01-13T16:42:23.023Z,64.18
2023-01-13T16:44:51.018Z,65.35
2023-01-13T16:47:19.160Z,62.06
2023-01-13T16:49:47.031Z,60.85
2023-01-13T16:52:14.458Z,58.42
2023-01-13T16:54:41.557Z,56.66
2023-01-13T16:57:13.273Z,58.55
2023-01-13T16:59:40.301Z,59.77
2023-01-13T17:02:14.985Z,60.96
2023-01-13T17:04:42.070Z,62.60
2023-01-13T17:07:11.990Z,64.49
2023-01-13T17:09:39.102Z,63.97
2023-01-13T17:12:06.758Z,63.88
2023-01-13T17:14:33.707Z,61.16
2023-01-13T17:17:00.745Z,55.82
2023-01-13T17:19:27.914Z,55.50
2023-01-13T17:21:55.263Z,57.52
2023-01-13T17:24:22.289Z,59.86
2023-01-13T17:26:51.278Z,60.81
2023-01-13T17:29:23.632Z,62.07
2023-01-13T17:31:52.001Z,63.81
2023-01-13T17:34:20.002Z,64.27
2023-01-13T17:36:47.690Z,61.17
2023-01-13T17:39:20.338Z,57.85
2023-01-13T17:41:48.343Z,56.14
2023-01-13T17:44:16.891Z,56.99
2023-01-13T17:46:44.835Z,59.06
2023-01-13T17:49:17.155Z,60.61
2023-01-13T17:51:45.528Z,62.20
2023-01-13T17:54:12.746Z,65.19
2023-01-13T17:56:41.483Z,63.41
2023-01-13T17:59:10.617Z,61.61
2023-01-13T18:01:39.241Z,58.26
2023-01-13T18:04:07.474Z,55.74
2023-01-13T18:06:35.367Z,57.15
2023-01-13T18:09:02.706Z,58.10
2023-01-13T18:11:30.007Z,59.70
2023-01-13T18:14:06.204Z,60.04
2023-01-13T18:16:33.742Z,62.50
2023-01-13T18:19:19.761Z,66.71
2023-01-13T18:22:06.748Z,68.08
2023-01-13T18:24:52.848Z,62.21
2023-01-13T18:27:24.100Z,59.92
2023-01-13T18:29:53.843Z,57.58
2023-01-13T18:32:22.412Z,57.91
2023-01-13T18:34:56.114Z,59.67
2023-01-13T18:37:29.161Z,63.02
2023-01-13T18:39:56.206Z,66.97
2023-01-13T18:42:42.881Z,67.21
2023-01-13T18:45:10.768Z,64.17
2023-01-13T18:47:39.560Z,63.64
2023-01-13T18:50:07.678Z,63.63
2023-01-13T18:52:36.106Z,63.43
2023-01-13T18:55:03.205Z,60.05
2023-01-13T18:57:30.614Z,57.61
2023-01-13T18:59:58.067Z,57.92
2023-01-13T19:02:26.909Z,58.85
2023-01-13T19:04:54.959Z,60.69
2023-01-13T19:07:28.799Z,65.30
2023-01-13T19:09:56.365Z,68.82
2023-01-13T19:12:26.559Z,68.08
2023-01-13T19:15:01.046Z,66.95
2023-01-13T19:17:32.808Z,65.84
2023-01-13T19:20:00.266Z,63.22
2023-01-13T19:22:30.604Z,61.39
2023-01-13T19:24:58.236Z,60.27
2023-01-13T19:27:30.703Z,57.57
2023-01-13T19:30:02.332Z,56.94
2023-01-13T19:32:33.071Z,58.33
2023-01-13T19:35:00.238Z,60.58
2023-01-13T19:37:31.850Z,61.97
2023-01-13T19:39:59.363Z,66.86
2023-01-13T19:42:46.079Z,70.33
2023-01-13T19:45:27.310Z,68.88
2023-01-13T19:47:55.075Z,66.70
2023-01-13T19:50:22.139Z,63.01
2023-01-13T19:52:49.475Z,62.40
2023-01-13T19:55:16.730Z,60.91
2023-01-13T19:57:43.874Z,60.08
2023-01-13T20:00:12.754Z,56.88
2023-01-13T20:02:45.403Z,57.34
2023-01-13T20:05:18.428Z,59.40
2023-01-13T20:07:45.869Z,61.14
2023-01-13T20:10:13.855Z,65.36
2023-01-13T20:12:42.180Z,68.79
2023-01-13T20:15:10.411Z,67.22
2023-01-13T20:17:37.772Z,64.84
2023-01-13T20:20:05.446Z,61.58
2023-01-13T20:22:33.125Z,61.33
2023-01-13T20:25:00.211Z,60.88
2023-01-13T20:27:27.336Z,59.25
2023-01-13T20:29:54.297Z,58.01
2023-01-13T20:32:21.647Z,59.65
2023-01-13T20:34:48.594Z,63.32
2023-01-13T20:37:15.735Z,66.63
2023-01-13T20:39:48.692Z,66.33
2023-01-13T20:42:31.281Z,64.34
2023-01-13T20:44:59.949Z,62.88
2023-01-13T20:47:30.444Z,62.08
2023-01-13T20:49:57.593Z,61.25
2023-01-13T20:52:25.146Z,58.85
2023-01-13T20:54:52.307Z,57.27
2023-01-13T20:57:19.686Z,59.29
2023-01-13T20:59:46.909Z,61.24
2023-01-13T21:02:15.923Z,65.50
2023-01-13T21:04:43.941Z,67.78
2023-01-13T21:07:11.313Z,66.64
2023-01-13T21:09:38.158Z,63.92
2023-01-13T21:12:24.860Z,62.38
2023-01-13T21:15:11.204Z,62.21
2023-01-13T21:17:57.242Z,60.43
2023-01-13T21:20:24.328Z,58.19
2023-01-13T21:22:51.691Z,57.66
2023-01-13T21:25:19.524Z,58.88
2023-01-13T21:27:46.570Z,60.10
2023-01-13T21:30:15.779Z,63.97
2023-01-13T21:32:44.883Z,68.03
2023-01-13T21:35:13.611Z,65.75
2023-01-13T21:37:42.838Z,64.99
2023-01-13T21:40:13.467Z,63.38
2023-01-13T21:42:59.439Z,61.97
2023-01-13T21:45:46.032Z,61.17
2023-01-13T21:48:13.130Z,60.24
2023-01-13T21:50:40.519Z,58.17
2023-01-13T21:53:08.378Z,57.01
2023-01-13T21:55:37.144Z,58.43
2023-01-13T21:58:14.706Z,59.17
2023-01-13T22:00:43.816Z,64.76
2023-01-13T22:03:12.808Z,67.40
2023-01-13T22:05:40.230Z,65.63
2023-01-13T22:08:07.949Z,64.35
2023-01-13T22:10:35.340Z,62.76
2023-01-13T22:13:23.490Z,61.53
2023-01-13T22:15:50.646Z,59.96
2023-01-13T22:18:18.756Z,57.71
2023-01-13T22:20:46.554Z,56.95
2023-01-13T22:23:13.897Z,58.31
2023-01-13T22:25:41.204Z,59.74
2023-01-13T22:28:09.620Z,64.61
2023-01-13T22:30:36.934Z,67.77
2023-01-13T22:33:04.342Z,66.33
2023-01-13T22:35:31.493Z,65.18
2023-01-13T22:37:59.144Z,63.63
2023-01-13T22:40:26.509Z,62.35
2023-01-13T22:42:53.687Z,61.35
2023-01-13T22:45:21.006Z,60.01
2023-01-13T22:47:49.992Z,57.62
2023-01-13T22:50:21.024Z,56.23
2023-01-13T22:52:47.898Z,58.48
2023-01-13T22:55:15.014Z,61.30
2023-01-13T22:57:47.681Z,64.90
2023-01-13T23:00:19.428Z,67.21
2023-01-13T23:02:46.699Z,66.16
2023-01-13T23:05:14.401Z,63.80
2023-01-13T23:07:42.324Z,62.36
2023-01-13T23:10:10.597Z,61.19
2023-01-13T23:12:38.085Z,60.42
2023-01-13T23:15:05.864Z,57.76
2023-01-13T23:17:33.205Z,55.75
2023-01-13T23:20:07.866Z,57.05
2023-01-13T23:22:39.655Z,58.74
2023-01-13T23:25:18.776Z,61.02
2023-01-13T23:27:50.742Z,65.86
2023-01-13T23:30:18.448Z,68.83
2023-01-13T23:32:45.445Z,66.24
2023-01-13T23:35:12.672Z,63.88
2023-01-13T23:37:39.711Z,63.02
2023-01-13T23:40:07.386Z,61.99
2023-01-13T23:42:34.652Z,60.47
2023-01-13T23:45:02.428Z,57.98
2023-01-13T23:47:29.659Z,56.02
2023-01-13T23:49:57.011Z,57.23
2023-01-13T23:52:24.476Z,58.30
2023-01-13T23:54:51.547Z,60.68
2023-01-13T23:57:18.927Z,64.31
2023-01-13T23:59:47.413Z,69.66
